Time;durP1;ratioP1;P1;durP2;ratioP2;P2;SDS_P1;SDS_P2;PMS_P1;PMS_P2;Temp;Humidity;BMP_temperature;BMP_pressure;BME280_temperature;BME280_humidity;BME280_pressure;Samples;Min_cycle;Max_cycle;Signal;HPM_P1;HPM_P2
2021/01/04 00:02:15;;;;;;;36.38;14.43;;;;;;;;;;5072354;28;20045;-54
2021/01/04 00:04:47;;;;;;;28.45;12.25;;;;;;;;;;5070675;28;20023;-55
2021/01/04 00:07:13;;;;;;;26.20;12.88;;;;;;;;;;5083578;28;20035;-55
2021/01/04 00:09:45;;;;;;;28.13;13.00;;;;;;;;;;5083649;28;20035;-55
2021/01/04 00:12:31;;;;;;;24.85;11.85;;;;;;;;;;5084176;28;20035;-55
2021/01/04 00:15:03;;;;;;;20.63;10.18;;;;;;;;;;5082222;28;20043;-55
2021/01/04 00:17:48;;;;;;;20.30;10.32;;;;;;;;;;5083879;28;20531;-56
2021/01/04 00:20:37;;;;;;;24.45;11.93;;;;;;;;;;5091311;28;20027;-57
2021/01/04 00:23:19;;;;;;;18.15;9.93;;;;;;;;;;5078120;28;20078;-56
2021/01/04 00:25:48;;;;;;;19.80;11.13;;;;;;;;;;5069883;28;20021;-55
2021/01/04 00:28:20;;;;;;;21.67;10.30;;;;;;;;;;5070795;28;20131;-55
2021/01/04 00:30:52;;;;;;;20.08;9.90;;;;;;;;;;5069911;28;20020;-56
2021/01/04 00:33:24;;;;;;;17.20;8.95;;;;;;;;;;5070115;28;20521;-56
2021/01/04 00:35:52;;;;;;;18.73;9.98;;;;;;;;;;5069982;28;20078;-55
2021/01/04 00:38:36;;;;;;;14.32;8.20;;;;;;;;;;5070107;28;20037;-56
2021/01/04 00:41:12;;;;;;;18.17;9.73;;;;;;;;;;5069649;28;20127;-56
2021/01/04 00:43:42;;;;;;;23.40;12.68;;;;;;;;;;5070019;28;20029;-55
2021/01/04 00:46:09;;;;;;;18.90;10.68;;;;;;;;;;5070312;28;20028;-56
2021/01/04 00:48:41;;;;;;;18.52;9.43;;;;;;;;;;5070394;28;20039;-55
2021/01/04 00:51:13;;;;;;;15.80;8.68;;;;;;;;;;5069547;28;20029;-55
2021/01/04 00:53:39;;;;;;;16.60;9.38;;;;;;;;;;5070641;28;20043;-56
2021/01/04 00:56:15;;;;;;;14.73;8.50;;;;;;;;;;5076108;28;20036;-56
2021/01/04 00:58:49;;;;;;;15.68;8.63;;;;;;;;;;5090521;28;20053;-56
2021/01/04 01:01:19;;;;;;;14.38;8.25;;;;;;;;;;5089323;28;20146;-55
2021/01/04 01:04:04;;;;;;;19.60;11.13;;;;;;;;;;5089579;28;20138;-55
2021/01/04 01:06:48;;;;;;;18.38;10.15;;;;;;;;;;5090244;28;20031;-56
2021/01/04 01:09:16;;;;;;;17.05;8.93;;;;;;;;;;5090370;28;20046;-54
2021/01/04 01:11:42;;;;;;;14.13;7.80;;;;;;;;;;5086257;28;20058;-56
2021/01/04 01:14:31;;;;;;;15.25;8.25;;;;;;;;;;5089681;28;20016;-56
2021/01/04 01:17:00;;;;;;;15.35;7.97;;;;;;;;;;5088363;28;20119;-55
2021/01/04 01:19:38;;;;;;;15.30;7.95;;;;;;;;;;5089809;28;20031;-55
2021/01/04 01:22:05;;;;;;;14.25;7.65;;;;;;;;;;5089869;28;20032;-56
2021/01/04 01:24:32;;;;;;;13.32;7.38;;;;;;;;;;5089869;28;20659;-55
2021/01/04 01:27:16;;;;;;;13.20;7.38;;;;;;;;;;5089734;28;20024;-55
2021/01/04 01:29:43;;;;;;;;;;;;;;;;;;5089043;28;20111;-56
2021/01/04 01:32:12;;;;;;;31.50;12.90;;;;;;;;;;5085994;28;20441;-54
2021/01/04 01:34:44;;;;;;;29.05;11.82;;;;;;;;;;5086543;28;20077;-56
2021/01/04 01:37:13;;;;;;;23.00;10.57;;;;;;;;;;5078538;28;20039;-55
2021/01/04 01:39:54;;;;;;;20.80;10.10;;;;;;;;;;5085979;28;20113;-55
2021/01/04 01:42:47;;;;;;;25.08;11.25;;;;;;;;;;5102873;28;20019;-56
2021/01/04 01:45:13;;;;;;;24.85;11.23;;;;;;;;;;5067705;28;20047;-55
2021/01/04 01:47:48;;;;;;;18.48;9.60;;;;;;;;;;5085745;28;20024;-55
2021/01/04 01:50:29;;;;;;;18.30;8.93;;;;;;;;;;5086150;28;20032;-55
2021/01/04 01:53:15;;;;;;;17.75;9.18;;;;;;;;;;5085962;28;20027;-55
2021/01/04 01:55:49;;;;;;;23.08;10.88;;;;;;;;;;5080478;28;20029;-56
2021/01/04 01:58:41;;;;;;;16.85;8.80;;;;;;;;;;5074950;28;20047;-54
2021/01/04 02:01:27;;;;;;;17.85;9.43;;;;;;;;;;5085231;28;20040;-55
2021/01/04 02:04:00;;;;;;;21.40;10.63;;;;;;;;;;5085556;28;20335;-56
2021/01/04 02:06:45;;;;;;;16.17;8.53;;;;;;;;;;5085852;28;20024;-55
2021/01/04 02:09:15;;;;;;;21.88;10.60;;;;;;;;;;5085120;28;20462;-53
2021/01/04 02:11:42;;;;;;;18.90;9.60;;;;;;;;;;5081682;28;20020;-55
2021/01/04 02:14:14;;;;;;;24.38;11.98;;;;;;;;;;5085348;28;20077;-55
2021/01/04 02:16:51;;;;;;;22.42;10.75;;;;;;;;;;5076277;28;20028;-56
2021/01/04 02:19:38;;;;;;;16.90;9.88;;;;;;;;;;5086690;28;20251;-56
2021/01/04 02:22:23;;;;;;;16.92;8.80;;;;;;;;;;5087809;28;20099;-55
2021/01/04 02:24:49;;;;;;;16.63;8.82;;;;;;;;;;5085081;28;20035;-55
2021/01/04 02:27:20;;;;;;;14.88;8.27;;;;;;;;;;5087755;28;20420;-55
2021/01/04 02:29:47;;;;;;;14.90;8.55;;;;;;;;;;5087034;28;20082;-56
2021/01/04 02:32:13;;;;;;;15.32;8.20;;;;;;;;;;5087686;28;20524;-56
2021/01/04 02:34:39;;;;;;;13.75;7.30;;;;;;;;;;5087716;28;20535;-56
2021/01/04 02:37:05;;;;;;;18.90;8.95;;;;;;;;;;5085550;28;20051;-56
2021/01/04 02:39:37;;;;;;;18.75;10.00;;;;;;;;;;5087744;28;20089;-55
2021/01/04 02:42:05;;;;;;;20.00;9.93;;;;;;;;;;5086392;28;20081;-56
2021/01/04 02:44:33;;;;;;;18.77;9.88;;;;;;;;;;5087669;28;20020;-55
2021/01/04 02:47:02;;;;;;;16.33;8.60;;;;;;;;;;5086915;28;20098;-56
2021/01/04 02:49:48;;;;;;;14.13;7.68;;;;;;;;;;5085836;28;20110;-56
2021/01/04 02:52:17;;;;;;;16.60;8.38;;;;;;;;;;5087766;28;20030;-56
2021/01/04 02:54:47;;;;;;;16.88;8.30;;;;;;;;;;5088129;28;20092;-55
2021/01/04 02:57:40;;;;;;;16.85;8.80;;;;;;;;;;5079835;28;20025;-56
2021/01/04 03:00:09;;;;;;;22.80;9.60;;;;;;;;;;5072963;28;20045;-56
2021/01/04 03:02:40;;;;;;;20.33;9.13;;;;;;;;;;5066665;28;20028;-55
2021/01/04 03:05:08;;;;;;;20.73;9.63;;;;;;;;;;5066923;28;20020;-56
2021/01/04 03:07:34;;;;;;;28.52;11.57;;;;;;;;;;5067008;28;20047;-56
2021/01/04 03:10:01;;;;;;;26.35;10.48;;;;;;;;;;5076380;28;20058;-56
2021/01/04 03:12:32;;;;;;;23.33;10.48;;;;;;;;;;5084643;28;20032;-56
2021/01/04 03:15:08;;;;;;;18.98;9.30;;;;;;;;;;5086106;28;20028;-55
2021/01/04 03:17:41;;;;;;;20.92;9.55;;;;;;;;;;5086223;28;20024;-57
2021/01/04 03:20:12;;;;;;;22.33;10.68;;;;;;;;;;5086229;28;20435;-56
2021/01/04 03:22:38;;;;;;;18.85;10.07;;;;;;;;;;5073498;28;20107;-55
2021/01/04 03:25:13;;;;;;;18.50;9.35;;;;;;;;;;5066182;28;20039;-56
2021/01/04 03:27:40;;;;;;;15.45;8.80;;;;;;;;;;5066769;28;20021;-55
2021/01/04 03:30:07;;;;;;;14.85;7.47;;;;;;;;;;5074712;28;20039;-56
2021/01/04 03:32:33;;;;;;;18.85;9.38;;;;;;;;;;5086230;28;20069;-56
2021/01/04 03:34:59;;;;;;;15.88;8.10;;;;;;;;;;5085129;28;20371;-56
2021/01/04 03:37:25;;;;;;;13.88;7.50;;;;;;;;;;5086396;28;20560;-56
2021/01/04 03:39:51;;;;;;;13.95;7.68;;;;;;;;;;5101684;28;20434;-54
2021/01/04 03:42:17;;;;;;;12.18;7.30;;;;;;;;;;5093058;28;20585;-56
2021/01/04 03:44:43;;;;;;;16.35;8.13;;;;;;;;;;5081711;28;20623;-56
2021/01/04 03:47:09;;;;;;;15.45;8.20;;;;;;;;;;5086248;28;20035;-55
2021/01/04 03:49:36;;;;;;;13.85;7.97;;;;;;;;;;5086348;28;20394;-56
2021/01/04 03:52:02;;;;;;;14.00;8.27;;;;;;;;;;5086059;28;20024;-56
2021/01/04 03:54:28;;;;;;;14.27;8.10;;;;;;;;;;5080105;28;20104;-55
2021/01/04 03:56:54;;;;;;;14.07;7.85;;;;;;;;;;5065615;28;20489;-57
2021/01/04 03:59:21;;;;;;;16.13;8.35;;;;;;;;;;5067008;28;20391;-55
2021/01/04 04:01:51;;;;;;;13.10;8.30;;;;;;;;;;5064354;28;20023;-55
2021/01/04 04:04:17;;;;;;;14.57;8.32;;;;;;;;;;5066246;28;20028;-56
2021/01/04 04:06:43;;;;;;;12.75;7.35;;;;;;;;;;5068325;28;20023;-56
2021/01/04 04:09:10;;;;;;;12.25;7.05;;;;;;;;;;5085222;28;20488;-56
2021/01/04 04:11:36;;;;;;;13.38;7.65;;;;;;;;;;5085406;28;20028;-56
2021/01/04 04:14:03;;;;;;;14.75;8.30;;;;;;;;;;5084836;28;20036;-56
2021/01/04 04:16:29;;;;;;;14.48;7.82;;;;;;;;;;5085429;28;20020;-56
2021/01/04 04:18:55;;;;;;;13.85;8.82;;;;;;;;;;5083552;28;20417;-56
2021/01/04 04:21:21;;;;;;;15.07;8.30;;;;;;;;;;5066572;28;20098;-56
2021/01/04 04:23:47;;;;;;;17.20;8.98;;;;;;;;;;5073386;28;20032;-55
2021/01/04 04:26:17;;;;;;;16.05;9.05;;;;;;;;;;5085918;28;20542;-56
2021/01/04 04:28:44;;;;;;;16.13;8.63;;;;;;;;;;5084798;28;20081;-56
2021/01/04 04:31:10;;;;;;;16.65;9.63;;;;;;;;;;5085615;28;20783;-55
2021/01/04 04:33:36;;;;;;;14.55;8.20;;;;;;;;;;5086047;28;20032;-55
2021/01/04 04:36:03;;;;;;;14.88;8.23;;;;;;;;;;5084488;28;20039;-56
2021/01/04 04:38:29;;;;;;;15.77;8.55;;;;;;;;;;5085357;28;20024;-56
2021/01/04 04:40:55;;;;;;;16.58;9.07;;;;;;;;;;5079337;28;20032;-56
2021/01/04 04:43:45;;;;;;;16.30;8.38;;;;;;;;;;5082874;28;20074;-56
2021/01/04 04:46:18;;;;;;;19.70;10.27;;;;;;;;;;5084682;28;20071;-57
2021/01/04 04:48:48;;;;;;;17.38;9.80;;;;;;;;;;5085444;28;20036;-56
2021/01/04 04:51:29;;;;;;;22.15;10.48;;;;;;;;;;5085726;28;20055;-55
2021/01/04 04:54:01;;;;;;;17.45;9.38;;;;;;;;;;5078229;28;20127;-55
2021/01/04 04:56:33;;;;;;;16.05;9.38;;;;;;;;;;5085527;28;20024;-55
2021/01/04 04:59:21;;;;;;;18.95;10.25;;;;;;;;;;5084990;28;20024;-56
2021/01/04 05:01:50;;;;;;;19.63;9.70;;;;;;;;;;5082621;28;20035;-56
2021/01/04 05:04:35;;;;;;;14.43;8.85;;;;;;;;;;5080598;28;20106;-55
2021/01/04 05:07:05;;;;;;;15.63;9.07;;;;;;;;;;5086657;28;20024;-55
2021/01/04 05:09:31;;;;;;;15.73;8.27;;;;;;;;;;5089239;28;20056;-57
2021/01/04 05:12:15;;;;;;;15.30;8.45;;;;;;;;;;5088766;28;20032;-55
2021/01/04 05:14:46;;;;;;;14.25;7.82;;;;;;;;;;5089160;28;20032;-56
2021/01/04 05:17:31;;;;;;;14.05;8.15;;;;;;;;;;5087800;28;20497;-56
2021/01/04 05:19:57;;;;;;;;;;;;;;;;;;5089208;28;20094;-56
2021/01/04 05:22:38;;;;;;;30.15;13.02;;;;;;;;;;5089838;28;20014;-56
2021/01/04 05:25:23;;;;;;;32.38;13.75;;;;;;;;;;5088700;28;20034;-56
2021/01/04 05:28:15;;;;;;;26.10;12.77;;;;;;;;;;5088143;28;20036;-55
2021/01/04 05:30:59;;;;;;;28.92;12.40;;;;;;;;;;5087309;28;20044;-56
2021/01/04 05:33:41;;;;;;;28.70;12.73;;;;;;;;;;5088778;28;20119;-56
2021/01/04 05:36:27;;;;;;;31.85;13.85;;;;;;;;;;5088411;28;20078;-55
2021/01/04 05:39:13;;;;;;;30.75;12.75;;;;;;;;;;5091570;28;20044;-57
2021/01/04 05:41:46;;;;;;;28.52;13.10;;;;;;;;;;5094319;28;20024;-56
2021/01/04 05:44:21;;;;;;;32.88;14.00;;;;;;;;;;5087871;28;20661;-56
2021/01/04 05:46:47;;;;;;;35.65;14.15;;;;;;;;;;5086476;28;20018;-57
2021/01/04 05:49:19;;;;;;;32.38;13.65;;;;;;;;;;5088847;28;20035;-57
2021/01/04 05:51:47;;;;;;;27.20;11.77;;;;;;;;;;5088264;28;20028;-56
2021/01/04 05:54:17;;;;;;;28.30;12.30;;;;;;;;;;5088137;28;20020;-56
2021/01/04 05:56:43;;;;;;;29.17;13.35;;;;;;;;;;5087849;28;20020;-56
2021/01/04 05:59:11;;;;;;;38.75;15.52;;;;;;;;;;5086418;28;20099;-57
2021/01/04 06:01:39;;;;;;;33.05;13.82;;;;;;;;;;5086843;28;20024;-57
2021/01/04 06:04:10;;;;;;;28.35;12.93;;;;;;;;;;5087947;28;20032;-56
2021/01/04 06:06:51;;;;;;;27.20;12.23;;;;;;;;;;5088047;28;20055;-56
2021/01/04 06:09:17;;;;;;;22.58;10.93;;;;;;;;;;5088029;28;20024;-56
2021/01/04 06:12:08;;;;;;;20.05;10.30;;;;;;;;;;5086344;28;20024;-57
2021/01/04 06:14:36;;;;;;;18.23;9.77;;;;;;;;;;5073603;28;20041;-57
2021/01/04 06:17:05;;;;;;;28.90;14.48;;;;;;;;;;5067125;28;20029;-57
2021/01/04 06:19:33;;;;;;;22.15;11.60;;;;;;;;;;5067863;28;20021;-57
2021/01/04 06:22:00;;;;;;;24.33;12.65;;;;;;;;;;5067483;28;20082;-56
2021/01/04 06:24:30;;;;;;;25.65;13.30;;;;;;;;;;5068111;28;20431;-57
2021/01/04 06:27:01;;;;;;;21.00;10.48;;;;;;;;;;5072420;28;20051;-55
2021/01/04 06:29:31;;;;;;;19.15;10.95;;;;;;;;;;5087605;28;20054;-55
2021/01/04 06:31:58;;;;;;;18.73;10.32;;;;;;;;;;5087364;28;20382;-57
2021/01/04 06:34:26;;;;;;;18.13;11.05;;;;;;;;;;5088487;28;20047;-57
2021/01/04 06:36:55;;;;;;;18.67;10.93;;;;;;;;;;5087844;28;20092;-56
2021/01/04 06:39:31;;;;;;;18.45;10.20;;;;;;;;;;5082284;28;20025;-56
2021/01/04 06:42:08;;;;;;;19.05;10.93;;;;;;;;;;5067149;28;20029;-57
2021/01/04 06:44:35;;;;;;;17.92;10.05;;;;;;;;;;5067003;28;20031;-56
2021/01/04 06:47:15;;;;;;;17.25;9.13;;;;;;;;;;5067180;28;20434;-56
2021/01/04 06:49:54;;;;;;;14.60;8.80;;;;;;;;;;5086710;28;20054;-56
2021/01/04 06:52:29;;;;;;;16.65;9.70;;;;;;;;;;5083982;28;20036;-57
2021/01/04 06:55:10;;;;;;;16.92;9.75;;;;;;;;;;5066891;28;20035;-57
2021/01/04 06:57:55;;;;;;;18.25;10.93;;;;;;;;;;5066326;28;20071;-57
2021/01/04 07:00:27;;;;;;;18.48;10.82;;;;;;;;;;5067384;28;20070;-57
2021/01/04 07:03:12;;;;;;;21.42;11.68;;;;;;;;;;5066778;28;20029;-57
2021/01/04 07:05:44;;;;;;;22.45;12.40;;;;;;;;;;5075963;28;20028;-57
2021/01/04 07:08:20;;;;;;;19.70;10.60;;;;;;;;;;5086932;28;20394;-56
2021/01/04 07:11:01;;;;;;;17.17;10.10;;;;;;;;;;5085458;28;20039;-56
2021/01/04 07:13:27;;;;;;;17.77;9.02;;;;;;;;;;5086893;28;20036;-57
2021/01/04 07:16:02;;;;;;;17.65;9.73;;;;;;;;;;5087155;28;20027;-56
2021/01/04 07:18:34;;;;;;;18.27;10.30;;;;;;;;;;5084514;28;20531;-57
2021/01/04 07:21:02;;;;;;;15.38;8.60;;;;;;;;;;5085238;28;20029;-57
2021/01/04 07:23:36;;;;;;;17.30;9.18;;;;;;;;;;5086794;28;20028;-57
2021/01/04 07:26:02;;;;;;;21.63;11.45;;;;;;;;;;5086934;28;20024;-57
2021/01/04 07:28:28;;;;;;;18.30;10.65;;;;;;;;;;5085832;28;20032;-56
2021/01/04 07:30:58;;;;;;;16.00;9.18;;;;;;;;;;5085110;28;20032;-56
2021/01/04 07:33:37;;;;;;;19.85;11.15;;;;;;;;;;5087492;28;20100;-57
2021/01/04 07:36:08;;;;;;;16.27;9.43;;;;;;;;;;5085028;28;20480;-56
2021/01/04 07:38:44;;;;;;;19.30;10.90;;;;;;;;;;5104644;28;20113;-56
2021/01/04 07:41:20;;;;;;;19.35;10.57;;;;;;;;;;5069061;28;20020;-57
2021/01/04 07:43:54;;;;;;;21.05;11.13;;;;;;;;;;5085542;28;20610;-57
2021/01/04 07:46:39;;;;;;;21.23;10.60;;;;;;;;;;5084350;28;20035;-57
2021/01/04 07:49:27;;;;;;;22.05;11.38;;;;;;;;;;5084265;28;20031;-57
2021/01/04 07:51:57;;;;;;;35.13;15.25;;;;;;;;;;5085945;28;20095;-57
2021/01/04 07:54:46;;;;;;;28.30;13.57;;;;;;;;;;5084400;28;20084;-57
2021/01/04 07:57:28;;;;;;;25.77;12.70;;;;;;;;;;5071535;28;20064;-57
2021/01/04 08:00:03;;;;;;;24.30;11.32;;;;;;;;;;5081165;28;20032;-56
2021/01/04 08:02:38;;;;;;;29.08;13.57;;;;;;;;;;5083726;28;20054;-58
2021/01/04 08:05:22;;;;;;;31.15;14.90;;;;;;;;;;5082062;28;20035;-57
2021/01/04 08:08:08;;;;;;;27.40;13.45;;;;;;;;;;5064187;28;20024;-57
2021/01/04 08:10:37;;;;;;;29.30;14.43;;;;;;;;;;5064336;28;20043;-56
2021/01/04 08:13:03;;;;;;;33.70;16.73;;;;;;;;;;5076259;28;20020;-57
2021/01/04 08:15:35;;;;;;;36.03;17.60;;;;;;;;;;5081008;28;20653;-57
2021/01/04 08:18:21;;;;;;;38.35;18.48;;;;;;;;;;5083007;28;20461;-56
2021/01/04 08:20:53;;;;;;;36.45;17.75;;;;;;;;;;5083666;28;20016;-57
2021/01/04 08:23:25;;;;;;;28.05;15.20;;;;;;;;;;5084044;28;20101;-57
2021/01/04 08:25:52;;;;;;;24.23;12.52;;;;;;;;;;5083110;28;20139;-57
2021/01/04 08:28:24;;;;;;;17.85;10.02;;;;;;;;;;5084550;28;20024;-57
2021/01/04 08:30:55;;;;;;;20.88;11.93;;;;;;;;;;5084778;28;20479;-57
2021/01/04 08:33:30;;;;;;;18.58;10.68;;;;;;;;;;5085187;28;20035;-57
2021/01/04 08:35:56;;;;;;;21.05;11.65;;;;;;;;;;5079641;28;20032;-57
2021/01/04 08:38:29;;;;;;;20.48;11.07;;;;;;;;;;5084387;28;20024;-57
2021/01/04 08:40:58;;;;;;;21.33;12.10;;;;;;;;;;5090188;28;20375;-58
2021/01/04 08:43:32;;;;;;;21.25;11.25;;;;;;;;;;5090344;28;20031;-57
2021/01/04 08:46:10;;;;;;;19.75;11.25;;;;;;;;;;5069306;28;20025;-57
2021/01/04 08:48:37;;;;;;;16.67;9.73;;;;;;;;;;5086607;28;20085;-57
2021/01/04 08:51:14;;;;;;;19.77;11.43;;;;;;;;;;5088966;28;20673;-57
2021/01/04 08:53:51;;;;;;;19.08;11.23;;;;;;;;;;5085041;28;20025;-57
2021/01/04 08:56:17;;;;;;;17.55;10.05;;;;;;;;;;5069379;28;20036;-57
2021/01/04 08:58:44;;;;;;;17.88;9.60;;;;;;;;;;5068406;28;20722;-58
2021/01/04 09:01:13;;;;;;;16.23;9.57;;;;;;;;;;5067388;28;20024;-57
2021/01/04 09:03:40;;;;;;;14.55;8.13;;;;;;;;;;5066184;28;20463;-57
2021/01/04 09:06:11;;;;;;;13.65;7.68;;;;;;;;;;5067442;28;20078;-58
2021/01/04 09:08:37;;;;;;;15.70;7.95;;;;;;;;;;5067135;28;20682;-57
2021/01/04 09:11:06;;;;;;;17.25;9.13;;;;;;;;;;5067236;28;20554;-58
2021/01/04 09:13:34;;;;;;;13.75;7.95;;;;;;;;;;5067029;28;20107;-58
2021/01/04 09:16:09;;;;;;;13.60;7.88;;;;;;;;;;5067412;28;20032;-58
2021/01/04 09:18:53;;;;;;;15.68;9.18;;;;;;;;;;5067227;28;20035;-58
2021/01/04 09:21:22;;;;;;;19.48;10.43;;;;;;;;;;5066958;28;20103;-57
2021/01/04 09:23:48;;;;;;;15.57;9.13;;;;;;;;;;5066625;28;20387;-57
2021/01/04 09:26:16;;;;;;;21.30;11.55;;;;;;;;;;5067261;28;20495;-58
2021/01/04 09:28:45;;;;;;;17.35;9.57;;;;;;;;;;5066466;28;20021;-57
2021/01/04 09:31:17;;;;;;;17.15;9.73;;;;;;;;;;5066722;28;20169;-57
2021/01/04 09:33:44;;;;;;;16.48;9.38;;;;;;;;;;5065213;28;20028;-57
2021/01/04 09:36:10;;;;;;;15.70;9.20;;;;;;;;;;5066784;28;20038;-57
2021/01/04 09:38:36;;;;;;;14.13;8.40;;;;;;;;;;5066333;28;20039;-56
2021/01/04 09:41:07;;;;;;;16.33;9.70;;;;;;;;;;5065280;28;20441;-58
2021/01/04 09:43:35;;;;;;;13.85;7.88;;;;;;;;;;5066411;28;20104;-57
2021/01/04 09:46:27;;;;;;;18.55;9.68;;;;;;;;;;5066368;28;20029;-57
2021/01/04 09:49:13;;;;;;;14.77;8.32;;;;;;;;;;5065887;28;20029;-58
2021/01/04 09:51:45;;;;;;;30.20;13.23;;;;;;;;;;5065225;28;20020;-57
2021/01/04 09:54:14;;;;;;;32.30;14.05;;;;;;;;;;5084741;28;20023;-57
2021/01/04 09:56:41;;;;;;;29.25;14.70;;;;;;;;;;5086119;28;20102;-57
2021/01/04 09:59:19;;;;;;;20.35;10.88;;;;;;;;;;5086266;28;20028;-57
2021/01/04 10:01:51;;;;;;;22.88;12.05;;;;;;;;;;5085995;28;20028;-58
2021/01/04 10:04:44;;;;;;;24.77;12.88;;;;;;;;;;5086265;28;20529;-57
2021/01/04 10:07:23;;;;;;;19.55;10.88;;;;;;;;;;5086106;28;20036;-57
2021/01/04 10:09:52;;;;;;;23.25;11.38;;;;;;;;;;5084656;28;20020;-57
2021/01/04 10:12:20;;;;;;;29.20;14.95;;;;;;;;;;5086164;28;20054;-57
2021/01/04 10:14:50;;;;;;;31.90;14.95;;;;;;;;;;5085988;28;20063;-58
2021/01/04 10:17:16;;;;;;;33.88;16.17;;;;;;;;;;5086257;28;20028;-58
2021/01/04 10:19:45;;;;;;;35.70;16.90;;;;;;;;;;5086181;28;20537;-57
2021/01/04 10:22:12;;;;;;;34.47;15.60;;;;;;;;;;5075804;28;20032;-57
2021/01/04 10:24:42;;;;;;;28.55;15.20;;;;;;;;;;5085926;28;20024;-56
2021/01/04 10:27:09;;;;;;;30.98;15.40;;;;;;;;;;5081718;28;20029;-57
2021/01/04 10:29:40;;;;;;;32.50;16.73;;;;;;;;;;5085349;28;20064;-57
2021/01/04 10:32:12;;;;;;;27.73;14.80;;;;;;;;;;5086017;28;20073;-56
2021/01/04 10:34:43;;;;;;;26.73;14.07;;;;;;;;;;5085926;28;20072;-57
2021/01/04 10:37:42;;;;;;;30.25;15.30;;;;;;;;;;5086160;28;20050;-57
2021/01/04 10:40:13;;;;;;;25.42;12.73;;;;;;;;;;5084191;28;20028;-56
2021/01/04 10:42:41;;;;;;;30.55;15.70;;;;;;;;;;5080111;28;20099;-56
2021/01/04 10:45:17;;;;;;;34.25;18.48;;;;;;;;;;5063595;28;20494;-57
2021/01/04 10:47:53;;;;;;;36.90;19.98;;;;;;;;;;5065306;28;20465;-56
2021/01/04 10:50:40;;;;;;;33.85;18.05;;;;;;;;;;5065293;28;20149;-57
2021/01/04 10:53:09;;;;;;;24.85;13.63;;;;;;;;;;5081183;28;20043;-57
2021/01/04 10:55:37;;;;;;;27.75;14.90;;;;;;;;;;5080894;28;20037;-56
2021/01/04 10:58:11;;;;;;;26.98;14.90;;;;;;;;;;5084298;28;20028;-57
2021/01/04 11:00:44;;;;;;;28.67;15.10;;;;;;;;;;5084372;28;20024;-56
2021/01/04 11:03:14;;;;;;;22.80;12.80;;;;;;;;;;5081991;28;20454;-56
2021/01/04 11:05:41;;;;;;;24.05;12.98;;;;;;;;;;5083731;28;20028;-56
2021/01/04 11:08:12;;;;;;;23.38;11.85;;;;;;;;;;5077707;28;20021;-56
2021/01/04 11:10:38;;;;;;;21.98;11.93;;;;;;;;;;5077131;28;20039;-56
2021/01/04 11:13:05;;;;;;;31.38;16.45;;;;;;;;;;5083322;28;20242;-56
2021/01/04 11:15:34;;;;;;;29.67;16.13;;;;;;;;;;5082244;28;20581;-55
2021/01/04 11:18:09;;;;;;;24.17;12.75;;;;;;;;;;5071858;28;20029;-56
2021/01/04 11:20:35;;;;;;;24.23;12.88;;;;;;;;;;5082389;28;20052;-56
2021/01/04 11:23:04;;;;;;;31.52;15.20;;;;;;;;;;5082935;28;20050;-56
2021/01/04 11:25:30;;;;;;;30.98;15.02;;;;;;;;;;5084711;28;20055;-56
2021/01/04 11:27:56;;;;;;;30.50;15.00;;;;;;;;;;5083919;28;20450;-57
2021/01/04 11:30:23;;;;;;;31.77;14.50;;;;;;;;;;5074130;28;20067;-56
2021/01/04 11:32:49;;;;;;;65.72;24.92;;;;;;;;;;5063694;28;20277;-57
2021/01/04 11:35:15;;;;;;;65.75;25.88;;;;;;;;;;5078999;28;20036;-55
2021/01/04 11:37:42;;;;;;;49.33;21.48;;;;;;;;;;5087206;28;20035;-54
2021/01/04 11:40:10;;;;;;;38.45;17.27;;;;;;;;;;5076580;28;20594;-55
2021/01/04 11:42:36;;;;;;;29.55;13.85;;;;;;;;;;5083009;28;20658;-56
2021/01/04 11:45:06;;;;;;;24.42;11.88;;;;;;;;;;5082547;28;20625;-56
2021/01/04 11:47:33;;;;;;;21.70;11.43;;;;;;;;;;5076124;28;20067;-55
2021/01/04 11:49:59;;;;;;;17.15;9.57;;;;;;;;;;5073517;28;20410;-56
2021/01/04 11:52:25;;;;;;;17.05;9.20;;;;;;;;;;5068753;28;20442;-55
2021/01/04 11:54:51;;;;;;;26.80;13.35;;;;;;;;;;5071647;28;20093;-56
2021/01/04 11:57:17;;;;;;;28.70;15.10;;;;;;;;;;5082577;28;20024;-55
2021/01/04 11:59:43;;;;;;;38.90;18.02;;;;;;;;;;5081457;28;20028;-55
2021/01/04 12:02:09;;;;;;;37.80;16.88;;;;;;;;;;5070773;28;20565;-57
2021/01/04 12:04:35;;;;;;;32.47;16.88;;;;;;;;;;5073267;28;20042;-55
2021/01/04 12:07:01;;;;;;;29.60;17.58;;;;;;;;;;5083483;28;20027;-55
2021/01/04 12:09:27;;;;;;;26.35;14.82;;;;;;;;;;5079682;28;20562;-57
2021/01/04 12:11:53;;;;;;;24.65;14.57;;;;;;;;;;5081028;28;20038;-55
2021/01/04 12:14:20;;;;;;;19.98;12.15;;;;;;;;;;5082326;28;20061;-56
2021/01/04 12:16:47;;;;;;;19.08;11.13;;;;;;;;;;5083139;28;20111;-57
2021/01/04 12:19:13;;;;;;;22.77;13.82;;;;;;;;;;5083655;28;20020;-57
2021/01/04 12:21:39;;;;;;;31.60;14.65;;;;;;;;;;5083172;28;20103;-57
2021/01/04 12:24:05;;;;;;;28.00;13.57;;;;;;;;;;5083593;28;20028;-57
2021/01/04 12:26:31;;;;;;;28.15;14.88;;;;;;;;;;5083677;28;20046;-56
2021/01/04 12:28:57;;;;;;;24.13;12.85;;;;;;;;;;5083673;28;20027;-56
2021/01/04 12:31:24;;;;;;;20.73;11.13;;;;;;;;;;5083843;28;20558;-56
2021/01/04 12:33:51;;;;;;;20.63;11.13;;;;;;;;;;5083532;28;20055;-56
2021/01/04 12:36:20;;;;;;;19.00;11.00;;;;;;;;;;5083213;28;20020;-54
2021/01/04 12:38:47;;;;;;;16.95;10.30;;;;;;;;;;5082263;28;20093;-56
2021/01/04 12:41:14;;;;;;;16.83;9.75;;;;;;;;;;5082253;28;20440;-56
2021/01/04 12:43:41;;;;;;;16.15;8.40;;;;;;;;;;5079891;28;20436;-55
2021/01/04 12:46:07;;;;;;;16.23;10.13;;;;;;;;;;5063462;28;20021;-57
2021/01/04 12:48:33;;;;;;;20.00;10.73;;;;;;;;;;5067784;28;20032;-56
2021/01/04 12:50:59;;;;;;;16.17;8.95;;;;;;;;;;5071962;28;20070;-56
2021/01/04 12:53:25;;;;;;;15.38;9.27;;;;;;;;;;5082744;28;20038;-57
2021/01/04 12:55:51;;;;;;;15.48;8.77;;;;;;;;;;5082612;28;20073;-56
2021/01/04 12:58:20;;;;;;;15.32;8.60;;;;;;;;;;5082811;28;20032;-55
2021/01/04 13:00:48;;;;;;;15.20;8.27;;;;;;;;;;5082587;28;20050;-56
2021/01/04 13:03:14;;;;;;;15.38;8.98;;;;;;;;;;5082571;28;20028;-56
2021/01/04 13:05:40;;;;;;;16.05;8.95;;;;;;;;;;5081738;28;20027;-56
2021/01/04 13:08:06;;;;;;;17.58;10.00;;;;;;;;;;5081712;28;20039;-56
2021/01/04 13:10:32;;;;;;;16.83;9.52;;;;;;;;;;5082593;28;20032;-55
2021/01/04 13:12:58;;;;;;;16.70;9.68;;;;;;;;;;5083336;28;20082;-56
2021/01/04 13:15:24;;;;;;;15.70;9.38;;;;;;;;;;5068142;28;20514;-56
2021/01/04 13:17:51;;;;;;;18.83;9.52;;;;;;;;;;5077314;28;20071;-55
2021/01/04 13:20:17;;;;;;;15.07;8.38;;;;;;;;;;5082773;28;20039;-56
2021/01/04 13:22:43;;;;;;;14.30;8.85;;;;;;;;;;5083163;28;20122;-56
2021/01/04 13:25:10;;;;;;;14.00;9.13;;;;;;;;;;5082992;28;20119;-56
2021/01/04 13:27:37;;;;;;;14.50;7.95;;;;;;;;;;5085894;28;20056;-56
2021/01/04 13:30:04;;;;;;;15.80;8.82;;;;;;;;;;5084741;28;20502;-56
2021/01/04 13:32:30;;;;;;;15.48;8.60;;;;;;;;;;5086876;28;20415;-56
2021/01/04 13:34:56;;;;;;;14.23;8.38;;;;;;;;;;5083670;28;20460;-56
2021/01/04 13:37:22;;;;;;;15.05;7.93;;;;;;;;;;5086836;28;20032;-56
2021/01/04 13:39:49;;;;;;;15.90;8.25;;;;;;;;;;5086137;28;20020;-56
2021/01/04 13:42:15;;;;;;;15.73;9.48;;;;;;;;;;5085094;28;20090;-57
2021/01/04 13:44:42;;;;;;;21.08;12.27;;;;;;;;;;5086235;28;20051;-58
2021/01/04 13:47:09;;;;;;;22.38;11.93;;;;;;;;;;5085580;28;20440;-56
2021/01/04 13:49:36;;;;;;;19.17;10.18;;;;;;;;;;5084375;28;20036;-56
2021/01/04 13:52:02;;;;;;;15.77;9.05;;;;;;;;;;5085825;28;20309;-56
2021/01/04 13:54:29;;;;;;;16.35;9.55;;;;;;;;;;5086586;28;20039;-56
2021/01/04 13:56:56;;;;;;;15.60;8.57;;;;;;;;;;5086095;28;20436;-56
2021/01/04 13:59:22;;;;;;;17.10;8.98;;;;;;;;;;5086171;28;20028;-56
2021/01/04 14:01:56;;;;;;;14.43;7.78;;;;;;;;;;5085429;28;20031;-56
2021/01/04 14:04:22;;;;;;;17.47;9.57;;;;;;;;;;5086264;28;20455;-56
2021/01/04 14:06:48;;;;;;;18.42;9.95;;;;;;;;;;5084282;28;20286;-56
2021/01/04 14:09:15;;;;;;;17.63;9.85;;;;;;;;;;5082310;28;20056;-57
2021/01/04 14:11:41;;;;;;;19.08;9.73;;;;;;;;;;5064511;28;20494;-56
2021/01/04 14:14:07;;;;;;;15.65;8.20;;;;;;;;;;5065650;28;20059;-55
2021/01/04 14:16:34;;;;;;;17.15;8.38;;;;;;;;;;5065966;28;20017;-57
2021/01/04 14:19:01;;;;;;;17.55;8.63;;;;;;;;;;5065997;28;20469;-56
2021/01/04 14:21:28;;;;;;;19.65;9.40;;;;;;;;;;5065341;28;20032;-57
2021/01/04 14:23:54;;;;;;;21.60;10.43;;;;;;;;;;5065238;28;20028;-57
2021/01/04 14:26:22;;;;;;;22.40;10.93;;;;;;;;;;5065386;28;20028;-56
2021/01/04 14:28:48;;;;;;;19.05;9.93;;;;;;;;;;5069286;28;20332;-56
2021/01/04 14:31:15;;;;;;;21.00;9.95;;;;;;;;;;5085766;28;20051;-56
2021/01/04 14:33:40;;;;;;;27.67;14.23;;;;;;;;;;5084834;28;20028;-57
2021/01/04 14:36:07;;;;;;;25.48;12.80;;;;;;;;;;5085815;28;20031;-56
2021/01/04 14:38:33;;;;;;;25.65;12.13;;;;;;;;;;5085243;28;20039;-56
2021/01/04 14:40:59;;;;;;;26.58;13.40;;;;;;;;;;5085457;28;20028;-56
2021/01/04 14:43:25;;;;;;;28.30;12.63;;;;;;;;;;5085780;28;20024;-55
2021/01/04 14:45:51;;;;;;;28.00;14.20;;;;;;;;;;5085209;28;20024;-56
2021/01/04 14:48:17;;;;;;;27.30;11.50;;;;;;;;;;5066802;28;20032;-54